Station Historical Data
 
Daily Summary for September 19, 2014 Units:  English    Metric   Both
« Previous Day
Next Day »
Daily Weekly Monthly Yearly Custom
  Current: High: Low: Average:
Temperature: 86.4 °F 87.0 °F 59.0 °F 70.6 °F
Dew Point: 69.9 °F 71.7 °F 57.3 °F 63.7 °F
Humidity: 58% 94% 55% 81%
Wind Speed: 2.0mph 5.0mph 0.0mph 0.9mph
Wind Gust: 2.0mph 8.0mph - -
WindSW - - SE
Pressure: 29.96 in 30.03 in 29.96 in -
Precipitation: 0.00 in      
Historical Graphs
 
 
Tabular Data for September 19, 2014
Time Temperature Dew Point Pressure Wind Wind Speed Wind Gust Humidity Rainfall Rate (Hourly) Conditions
00:03 63.6 °F 61.8 °F 29.98 in Calm     94% 0.00 in
00:08 63.5 °F 61.8 °F 29.98 in Calm     94% 0.00 in
00:13 63.4 °F 61.7 °F 29.98 in Calm     94% 0.00 in
00:18 63.3 °F 61.5 °F 29.99 in Calm     94% 0.00 in
00:23 63.3 °F 61.5 °F 29.98 in Calm     94% 0.00 in
00:28 63.4 °F 61.7 °F 29.98 in Calm     94% 0.00 in
00:33 63.4 °F 61.7 °F 29.98 in Calm     94% 0.00 in
00:38 63.5 °F 61.8 °F 29.98 in Calm     94% 0.00 in
00:43 63.5 °F 61.8 °F 29.98 in Calm     94% 0.00 in
00:48 63.5 °F 61.8 °F 29.99 in Calm     94% 0.00 in
00:53 63.6 °F 61.8 °F 29.98 in Calm     94% 0.00 in
00:58 63.5 °F 61.8 °F 29.99 in Calm     94% 0.00 in
01:03 63.7 °F 62.0 °F 29.98 in Calm     94% 0.00 in
01:08 63.7 °F 62.0 °F 29.99 in Calm     94% 0.00 in
01:13 63.8 °F 62.0 °F 29.99 in Calm     94% 0.00 in
01:18 63.9 °F 61.8 °F 30.00 in Calm   3.0 mph 93% 0.00 in
01:23 64.2 °F 62.1 °F 30.00 in NE 1.0 mph 2.0 mph 93% 0.00 in
01:28 64.4 °F 62.3 °F 29.99 in Calm   1.0 mph 93% 0.00 in
01:33 64.5 °F 62.4 °F 30.00 in SW 2.0 mph 2.0 mph 93% 0.00 in
01:38 64.5 °F 62.4 °F 30.00 in ENE 1.0 mph 1.0 mph 93% 0.00 in
01:43 64.4 °F 62.3 °F 30.00 in Calm   1.0 mph 93% 0.00 in
01:48 64.3 °F 62.2 °F 30.00 in Calm     93% 0.00 in
01:53 64.1 °F 62.0 °F 30.00 in Calm     93% 0.00 in
01:58 63.8 °F 61.7 °F 30.00 in Calm     93% 0.00 in
02:03 63.6 °F 61.5 °F 30.00 in Calm     93% 0.00 in
02:08 63.4 °F 61.3 °F 30.00 in Calm     93% 0.00 in
02:13 63.1 °F 61.0 °F 30.00 in Calm     93% 0.00 in
02:18 62.9 °F 61.2 °F 30.00 in Calm     94% 0.00 in
02:23 62.7 °F 61.0 °F 30.00 in Calm     94% 0.00 in
02:28 62.4 °F 60.7 °F 30.00 in Calm     94% 0.00 in
02:33 62.2 °F 60.5 °F 30.00 in Calm     94% 0.00 in
02:38 62.0 °F 60.3 °F 30.00 in Calm     94% 0.00 in
02:43 62.0 °F 60.3 °F 29.99 in Calm     94% 0.00 in
02:48 61.8 °F 60.1 °F 29.99 in Calm   1.0 mph 94% 0.00 in
02:53 61.7 °F 60.0 °F 29.99 in Calm     94% 0.00 in
02:58 61.7 °F 60.0 °F 29.99 in Calm   1.0 mph 94% 0.00 in
03:03 61.7 °F 60.0 °F 29.99 in Calm     94% 0.00 in
03:08 61.6 °F 59.9 °F 29.98 in Calm     94% 0.00 in
03:13 61.5 °F 59.8 °F 29.98 in Calm     94% 0.00 in
03:18 61.5 °F 59.8 °F 29.98 in Calm     94% 0.00 in
03:23 61.3 °F 59.6 °F 29.98 in Calm     94% 0.00 in
03:28 61.2 °F 59.5 °F 29.98 in Calm     94% 0.00 in
03:33 61.3 °F 59.6 °F 29.98 in Calm     94% 0.00 in
03:38 61.3 °F 59.6 °F 29.98 in Calm     94% 0.00 in
03:44 61.3 °F 59.6 °F 29.98 in Calm     94% 0.00 in
03:49 61.2 °F 59.5 °F 29.98 in Calm     94% 0.00 in
03:54 61.1 °F 59.4 °F 29.98 in Calm     94% 0.00 in
03:59 61.1 °F 59.4 °F 29.98 in Calm     94% 0.00 in
04:04 61.1 °F 59.4 °F 29.98 in Calm     94% 0.00 in
04:09 61.1 °F 59.4 °F 29.97 in Calm     94% 0.00 in
04:14 61.1 °F 59.4 °F 29.97 in Calm     94% 0.00 in
04:19 61.0 °F 59.3 °F 29.97 in Calm     94% 0.00 in
04:24 61.0 °F 59.3 °F 29.97 in Calm     94% 0.00 in
04:29 60.9 °F 59.2 °F 29.97 in Calm     94% 0.00 in
04:34 61.0 °F 59.3 °F 29.97 in Calm     94% 0.00 in
04:39 61.0 °F 59.3 °F 29.97 in Calm     94% 0.00 in
04:44 60.9 °F 59.2 °F 29.97 in Calm   1.0 mph 94% 0.00 in
04:49 60.9 °F 59.2 °F 29.97 in Calm     94% 0.00 in
04:54 60.8 °F 59.1 °F 29.97 in Calm     94% 0.00 in
04:59 60.8 °F 59.1 °F 29.97 in Calm   1.0 mph 94% 0.00 in
05:04 60.7 °F 59.0 °F 29.97 in Calm     94% 0.00 in
05:09 60.6 °F 58.9 °F 29.97 in Calm     94% 0.00 in
05:14 60.4 °F 58.7 °F 29.97 in Calm     94% 0.00 in
05:19 60.4 °F 58.7 °F 29.97 in Calm     94% 0.00 in
05:24 60.3 °F 58.6 °F 29.97 in Calm     94% 0.00 in
05:29 60.2 °F 58.5 °F 29.97 in Calm     94% 0.00 in
05:34 60.1 °F 58.4 °F 29.97 in Calm     94% 0.00 in
05:39 60.1 °F 58.4 °F 29.97 in Calm     94% 0.00 in
05:44 60.1 °F 58.4 °F 29.97 in Calm     94% 0.00 in
05:49 60.1 °F 58.4 °F 29.97 in Calm     94% 0.00 in
05:54 60.1 °F 58.4 °F 29.97 in Calm     94% 0.00 in
05:59 60.0 °F 58.3 °F 29.97 in Calm     94% 0.00 in
06:04 59.8 °F 58.1 °F 29.97 in Calm     94% 0.00 in
06:09 59.7 °F 58.0 °F 29.97 in Calm     94% 0.00 in
06:14 59.6 °F 57.9 °F 29.97 in Calm     94% 0.00 in
06:19 59.5 °F 57.8 °F 29.97 in Calm     94% 0.00 in
06:24 59.5 °F 57.8 °F 29.97 in Calm     94% 0.00 in
06:29 59.5 °F 57.8 °F 29.97 in Calm     94% 0.00 in
06:34 59.5 °F 57.8 °F 29.97 in Calm     94% 0.00 in
06:39 59.3 °F 57.6 °F 29.97 in Calm     94% 0.00 in
06:44 59.1 °F 57.4 °F 29.98 in Calm     94% 0.00 in
06:49 59.1 °F 57.4 °F 29.98 in Calm   1.0 mph 94% 0.00 in
06:55 59.5 °F 57.8 °F 29.98 in Calm   1.0 mph 94% 0.00 in
07:00 59.6 °F 57.9 °F 29.98 in Calm     94% 0.00 in
07:05 59.6 °F 57.9 °F 29.98 in Calm   1.0 mph 94% 0.00 in
07:10 59.6 °F 57.9 °F 29.99 in Calm     94% 0.00 in
07:15 59.4 °F 57.7 °F 29.99 in Calm     94% 0.00 in
07:20 59.4 °F 57.7 °F 29.99 in Calm     94% 0.00 in
07:25 59.3 °F 57.6 °F 29.99 in Calm     94% 0.00 in
07:30 59.1 °F 57.4 °F 29.99 in Calm     94% 0.00 in
07:35 59.1 °F 57.4 °F 29.99 in Calm     94% 0.00 in
07:40 59.1 °F 57.4 °F 29.99 in Calm     94% 0.00 in
07:45 59.0 °F 57.3 °F 30.00 in Calm     94% 0.00 in
07:50 59.1 °F 57.4 °F 30.00 in Calm     94% 0.00 in
07:55 59.2 °F 57.5 °F 30.00 in Calm     94% 0.00 in
08:00 59.1 °F 57.4 °F 30.00 in Calm     94% 0.00 in
08:05 59.2 °F 57.5 °F 30.00 in Calm     94% 0.00 in
08:10 59.4 °F 57.7 °F 30.01 in Calm     94% 0.00 in
08:15 59.6 °F 57.9 °F 30.01 in Calm     94% 0.00 in
08:20 59.8 °F 58.1 °F 30.01 in Calm     94% 0.00 in
08:25 60.3 °F 58.6 °F 30.01 in Calm     94% 0.00 in
08:30 61.1 °F 59.1 °F 30.01 in Calm     93% 0.00 in
08:35 61.7 °F 59.7 °F 30.01 in Calm   1.0 mph 93% 0.00 in
08:40 62.4 °F 60.3 °F 30.01 in Calm   1.0 mph 93% 0.00 in
08:45 63.0 °F 61.0 °F 30.01 in Calm   1.0 mph 93% 0.00 in
08:50 63.6 °F 61.5 °F 30.01 in Calm   1.0 mph 93% 0.00 in
08:55 64.4 °F 62.6 °F 30.01 in Calm   1.0 mph 94% 0.00 in
09:00 65.0 °F 63.2 °F 30.01 in East 1.0 mph 1.0 mph 94% 0.00 in
09:05 65.6 °F 63.5 °F 30.01 in ESE 1.0 mph 2.0 mph 93% 0.00 in
09:10 66.0 °F 63.6 °F 30.01 in ESE 1.0 mph 3.0 mph 92% 0.00 in
09:15 66.5 °F 63.8 °F 30.01 in ESE 2.0 mph 4.0 mph 91% 0.00 in
09:21 66.9 °F 64.2 °F 30.01 in East 1.0 mph 4.0 mph 91% 0.00 in
09:26 67.7 °F 64.7 °F 30.01 in East 1.0 mph 3.0 mph 90% 0.00 in
09:30 68.2 °F 64.8 °F 30.01 in ESE 2.0 mph 3.0 mph 89% 0.00 in
09:36 68.7 °F 64.7 °F 30.01 in SE 2.0 mph 4.0 mph 87% 0.00 in
09:41 68.9 °F 64.6 °F 30.02 in ESE 3.0 mph 4.0 mph 86% 0.00 in
09:46 69.4 °F 65.0 °F 30.02 in ESE 2.0 mph 3.0 mph 86% 0.00 in
09:51 69.9 °F 64.8 °F 30.02 in SE 1.0 mph 4.0 mph 84% 0.00 in
09:56 70.3 °F 65.2 °F 30.02 in South 3.0 mph 4.0 mph 84% 0.00 in
10:01 70.7 °F 65.3 °F 30.02 in Calm   3.0 mph 83% 0.00 in
10:06 71.4 °F 66.0 °F 30.02 in ESE 3.0 mph 4.0 mph 83% 0.00 in
10:11 71.4 °F 66.0 °F 30.02 in SE 1.0 mph 6.0 mph 83% 0.00 in
10:16 71.8 °F 66.0 °F 30.02 in SE 3.0 mph 6.0 mph 82% 0.00 in
10:21 72.4 °F 66.2 °F 30.02 in SSE 4.0 mph 4.0 mph 81% 0.00 in
10:26 72.8 °F 65.9 °F 30.02 in East 2.0 mph 7.0 mph 79% 0.00 in
10:31 73.0 °F 66.5 °F 30.02 in ENE 2.0 mph 3.0 mph 80% 0.00 in
10:36 73.5 °F 66.2 °F 30.02 in ENE 2.0 mph 4.0 mph 78% 0.00 in
10:41 73.8 °F 66.2 °F 30.02 in SE 1.0 mph 5.0 mph 77% 0.00 in
10:46 74.5 °F 66.8 °F 30.02 in SE 3.0 mph 3.0 mph 77% 0.00 in
10:51 75.0 °F 66.6 °F 30.03 in ENE 1.0 mph 5.0 mph 75% 0.00 in
10:56 75.2 °F 66.3 °F 30.03 in SSW 3.0 mph 8.0 mph 74% 0.00 in
11:01 75.3 °F 66.4 °F 30.03 in SE 4.0 mph 6.0 mph 74% 0.00 in
11:06 75.5 °F 66.6 °F 30.03 in East 3.0 mph 6.0 mph 74% 0.00 in
11:11 75.5 °F 67.0 °F 30.03 in SSE 4.0 mph 4.0 mph 75% 0.00 in
11:16 75.9 °F 67.0 °F 30.03 in East 2.0 mph 7.0 mph 74% 0.00 in
11:21 76.2 °F 67.3 °F 30.03 in East 4.0 mph 4.0 mph 74% 0.00 in
11:26 76.4 °F 67.9 °F 30.03 in South 5.0 mph 5.0 mph 75% 0.00 in
11:31 76.7 °F 66.6 °F 30.03 in SSE 4.0 mph 5.0 mph 71% 0.00 in
11:36 77.0 °F 66.9 °F 30.03 in SE 2.0 mph 5.0 mph 71% 0.00 in
11:41 77.4 °F 66.9 °F 30.03 in SE 1.0 mph 4.0 mph 70% 0.00 in
11:46 78.0 °F 67.0 °F 30.03 in SW 3.0 mph 4.0 mph 69% 0.00 in
11:51 78.3 °F 67.3 °F 30.03 in ESE 1.0 mph 4.0 mph 69% 0.00 in
11:56 78.6 °F 67.6 °F 30.03 in East 4.0 mph 5.0 mph 69% 0.00 in
12:01 78.8 °F 66.9 °F 30.03 in ESE 5.0 mph 5.0 mph 67% 0.00 in
12:06 78.7 °F 67.3 °F 30.02 in ESE 4.0 mph 7.0 mph 68% 0.00 in
12:11 79.0 °F 68.8 °F 30.02 in SE 1.0 mph 3.0 mph 71% 0.00 in
12:16 79.4 °F 68.3 °F 30.02 in SSE 1.0 mph 5.0 mph 69% 0.00 in
12:21 79.7 °F 67.3 °F 30.02 in SSE 1.0 mph 4.0 mph 66% 0.00 in
12:26 80.4 °F 69.3 °F 30.02 in ESE 3.0 mph 4.0 mph 69% 0.00 in
12:31 80.9 °F 68.0 °F 30.02 in SE 4.0 mph 6.0 mph 65% 0.00 in
12:36 81.1 °F 68.2 °F 30.02 in Calm   4.0 mph 65% 0.00 in
12:42 80.7 °F 67.4 °F 30.02 in ESE 2.0 mph 6.0 mph 64% 0.00 in
12:47 80.6 °F 67.3 °F 30.02 in ESE 4.0 mph 5.0 mph 64% 0.00 in
12:52 81.0 °F 67.2 °F 30.02 in East 4.0 mph 6.0 mph 63% 0.00 in
12:57 81.0 °F 69.4 °F 30.02 in SE 2.0 mph 5.0 mph 68% 0.00 in
13:02 82.2 °F 69.3 °F 30.01 in SE 1.0 mph 3.0 mph 65% 0.00 in
13:07 82.6 °F 68.3 °F 30.01 in South 3.0 mph 5.0 mph 62% 0.00 in
13:12 82.6 °F 68.7 °F 30.01 in SE 3.0 mph 6.0 mph 63% 0.00 in
13:17 82.7 °F 67.9 °F 30.01 in SE 2.0 mph 4.0 mph 61% 0.00 in
13:22 82.6 °F 66.8 °F 30.01 in SE 3.0 mph 8.0 mph 59% 0.00 in
13:27 82.4 °F 68.6 °F 30.01 in SE 5.0 mph 5.0 mph 63% 0.00 in
13:32 82.5 °F 68.6 °F 30.01 in SE 3.0 mph 6.0 mph 63% 0.00 in
13:37 82.7 °F 68.4 °F 30.01 in SE 3.0 mph 7.0 mph 62% 0.00 in
13:42 82.6 °F 67.8 °F 30.01 in SW 1.0 mph 4.0 mph 61% 0.00 in
13:47 82.8 °F 67.5 °F 30.01 in South 1.0 mph 5.0 mph 60% 0.00 in
13:52 83.1 °F 68.3 °F 30.01 in Calm   1.0 mph 61% 0.00 in
13:57 83.3 °F 68.0 °F 30.01 in SSE 2.0 mph 4.0 mph 60% 0.00 in
14:02 83.0 °F 68.2 °F 30.01 in ENE 1.0 mph 4.0 mph 61% 0.00 in
14:07 82.8 °F 68.5 °F 30.01 in SSW 2.0 mph 3.0 mph 62% 0.00 in
14:12 82.5 °F 67.7 °F 30.01 in ESE 2.0 mph 4.0 mph 61% 0.00 in
14:15 82.4 °F 68.6 °F 30.00 in East 4.0 mph 5.0 mph 63% 0.00 in
14:20 82.4 °F 67.6 °F 30.00 in ESE 4.0 mph 8.0 mph 61% 0.00 in
14:25 82.1 °F 67.8 °F 30.00 in Calm   3.0 mph 62% 0.00 in
14:30 81.9 °F 68.1 °F 30.00 in East 3.0 mph 3.0 mph 63% 0.00 in
14:35 81.8 °F 68.4 °F 30.00 in Calm   3.0 mph 64% 0.00 in
14:40 82.2 °F 68.4 °F 30.00 in Calm   4.0 mph 63% 0.00 in
14:45 83.0 °F 69.1 °F 29.99 in Calm   4.0 mph 63% 0.00 in
14:50 84.0 °F 69.6 °F 29.99 in NE 1.0 mph 4.0 mph 62% 0.00 in
14:55 84.4 °F 69.0 °F 29.99 in North 1.0 mph 6.0 mph 60% 0.00 in
15:00 85.1 °F 69.7 °F 29.99 in East 2.0 mph 3.0 mph 60% 0.00 in
15:05 85.6 °F 69.6 °F 29.99 in East 1.0 mph 4.0 mph 59% 0.00 in
15:10 85.2 °F 68.3 °F 29.99 in SSE 1.0 mph 4.0 mph 57% 0.00 in
15:12 85.1 °F 67.7 °F 29.99 in SE 2.0 mph 4.0 mph 56% 0.00 in
15:17 85.5 °F 68.0 °F 29.98 in SE 2.0 mph 5.0 mph 56% 0.00 in
15:22 85.6 °F 68.1 °F 29.98 in SE 4.0 mph 4.0 mph 56% 0.00 in
15:27 85.7 °F 69.7 °F 29.98 in SE 1.0 mph 4.0 mph 59% 0.00 in
15:32 85.9 °F 68.4 °F 29.98 in ESE 2.0 mph 3.0 mph 56% 0.00 in
15:37 85.1 °F 68.2 °F 29.98 in SW 2.0 mph 4.0 mph 57% 0.00 in
15:42 84.4 °F 67.5 °F 29.98 in SSE 1.0 mph 2.0 mph 57% 0.00 in
15:47 84.7 °F 67.3 °F 29.98 in ESE 1.0 mph 5.0 mph 56% 0.00 in
15:51 84.8 °F 68.9 °F 29.97 in West 1.0 mph 2.0 mph 59% 0.00 in
15:56 85.3 °F 69.4 °F 29.97 in SSW 1.0 mph 3.0 mph 59% 0.00 in
16:01 85.5 °F 68.5 °F 29.97 in Calm   3.0 mph 57% 0.00 in
16:06 86.0 °F 71.0 °F 29.97 in Calm   2.0 mph 61% 0.00 in
16:11 86.1 °F 69.6 °F 29.97 in WSW 1.0 mph 2.0 mph 58% 0.00 in
16:16 85.7 °F 68.2 °F 29.97 in SSW 2.0 mph 4.0 mph 56% 0.00 in
16:21 85.9 °F 67.9 °F 29.97 in Calm   2.0 mph 55% 0.00 in
16:27 86.1 °F 69.6 °F 29.96 in SSE 1.0 mph 5.0 mph 58% 0.00 in
16:32 85.6 °F 69.1 °F 29.96 in Calm   1.0 mph 58% 0.00 in
16:37 84.9 °F 70.4 °F 29.96 in Calm     62% 0.00 in
16:42 84.1 °F 70.6 °F 29.96 in Calm     64% 0.00 in
16:47 83.4 °F 70.4 °F 29.96 in SW 2.0 mph 2.0 mph 65% 0.00 in
16:52 83.0 °F 70.0 °F 29.96 in Calm   1.0 mph 65% 0.00 in
16:57 82.5 °F 70.0 °F 29.97 in Calm     66% 0.00 in
17:01 82.1 °F 70.1 °F 29.96 in Calm     67% 0.00 in
17:06 81.6 °F 70.9 °F 29.97 in Calm     70% 0.00 in
17:11 81.0 °F 69.4 °F 29.97 in Calm     68% 0.00 in
17:16 80.6 °F 69.5 °F 29.97 in Calm     69% 0.00 in
17:21 81.4 °F 70.7 °F 29.97 in Calm     70% 0.00 in
17:26 83.2 °F 70.2 °F 29.96 in Calm     65% 0.00 in
17:31 85.2 °F 69.3 °F 29.96 in Calm     59% 0.00 in
17:36 86.6 °F 69.6 °F 29.96 in Calm   1.0 mph 57% 0.00 in
17:41 87.0 °F 69.4 °F 29.96 in Calm   2.0 mph 56% 0.00 in
17:46 86.7 °F 71.7 °F 29.96 in Calm   1.0 mph 61% 0.00 in
17:51 86.4 °F 69.9 °F 29.96 in SW 2.0 mph 2.0 mph 58% 0.00 in
Compliments of Weather Underground